KSQL/SQL METAR and TAF weather

Enter ICAO airport designator
Station Type Date Time Source
KSQL METAR 2020/04/06 14:00 UTC NOAA

KSQL 061400Z AUTO 00000KT 10SM OVC060 08/06 A2981 RMK AO2


Station Type Date Time Source
KSQL Decoded METAR 2020/04/06 14:00 UTC NOAA

San Carlos Airport, CA, United States (KSQL) 37-31N 122-15W
Apr 06, 2020 - 10:00 AM EDT / 2020.04.06 1400 UTC
Wind: Calm:0
Visibility: 10 mile(s):0
Sky conditions: overcast
Temperature: 46 F (8 C)
Dew Point: 42 F (6 C)
Relative Humidity: 87%
Pressure (altimeter): 29.81 in. Hg (1009 hPa)
ob: KSQL 061400Z AUTO 00000KT 10SM OVC060 08/06 A2981 RMK AO2
cycle: 14

Station Type Date Time Source
KSQL TAF UTC NOAA

Error!

Example: see airport list